Time;durP1;ratioP1;P1;durP2;ratioP2;P2;SDS_P1;SDS_P2;PMS_P1;PMS_P2;Temp;Humidity;BMP_temperature;BMP_pressure;BME280_temperature;BME280_humidity;BME280_pressure;Samples;Min_cycle;Max_cycle;Signal;HPM_P1;HPM_P2
2024/01/24 00:00:06;;;;;;;4.47;4.07;;;;;;;;;;5053963;28;20553;-72
2024/01/24 00:02:32;;;;;;;4.00;3.60;;;;;;;;;;5055090;28;20182;-72
2024/01/24 00:04:58;;;;;;;5.63;3.37;;;12.60;99.90;;;;;;5053022;28;20255;-72
2024/01/24 00:07:24;;;;;;;3.40;3.10;;;;;;;;;;5053022;28;20170;-72
2024/01/24 00:09:50;;;;;;;4.80;4.37;;;;;;;;;;5049384;28;20231;-71
2024/01/24 00:12:16;;;;;;;5.97;3.80;;;;;;;;;;5033235;28;20658;-73
2024/01/24 00:14:42;;;;;;;3.70;3.40;;;;;;;;;;5033186;28;20278;-73
2024/01/24 00:17:08;;;;;;;5.67;4.53;;;;;;;;;;5032826;28;20206;-74
2024/01/24 00:19:34;;;;;;;4.43;3.80;;;;;;;;;;5050431;28;20175;-71
2024/01/24 00:22:00;;;;;;;5.53;3.47;;;;;;;;;;5052823;28;20181;-74
2024/01/24 00:24:26;;;;;;;3.40;3.20;;;;;;;;;;5052611;28;20214;-74
2024/01/24 00:26:52;;;;;;;5.07;3.53;;;;;;;;;;5052911;28;20186;-74
2024/01/24 00:29:18;;;;;;;4.17;3.80;;;;;;;;;;5052500;28;20178;-72
2024/01/24 00:31:48;;;;;;;6.23;4.00;;;;;;;;;;5052889;28;20186;-71
2024/01/24 00:34:14;;;;;;;7.70;3.93;;;;;;;;;;5035426;28;20199;-71
2024/01/24 00:36:40;;;;;;;5.17;3.70;;;;;;;;;;5032621;28;20204;-72
2024/01/24 00:39:07;;;;;;;6.90;3.83;;;;;;;;;;5032794;28;20229;-72
2024/01/24 00:41:33;;;;;;;4.20;3.60;;;;;;;;;;5033305;28;20262;-72
2024/01/24 00:43:59;;;;;;;5.93;3.90;;;;;;;;;;5032576;28;20278;-71
2024/01/24 00:46:25;;;;;;;4.83;3.80;;;;;;;;;;5032463;28;20194;-74
2024/01/24 00:48:51;;;;;;;5.27;4.23;;;;;;;;;;5032578;28;20574;-73
2024/01/24 00:51:17;;;;;;;4.40;4.00;;;;;;;;;;5046138;28;20187;-71
2024/01/24 00:53:44;;;;;;;7.23;4.93;;;;;;;;;;5051713;28;20206;-72
2024/01/24 00:56:11;;;;;;;5.17;3.93;;;;;;;;;;5050751;28;20641;-72
2024/01/24 00:58:37;;;;;;;6.47;3.87;;;;;;;;;;5052448;28;20486;-71
2024/01/24 01:01:03;;;;;;;4.50;4.07;;;;;;;;;;5052179;28;20198;-71
2024/01/24 01:03:29;;;;;;;10.13;4.60;;;;;;;;;;5052141;28;20604;-72
2024/01/24 01:05:55;;;;;;;6.00;4.37;;;;;;;;;;5038524;28;20330;-72
2024/01/24 01:08:21;;;;;;;4.10;3.70;;;;;;;;;;5031201;28;20651;-73
2024/01/24 01:10:47;;;;;;;4.77;3.60;;;;;;;;;;5032007;28;20233;-73
2024/01/24 01:13:13;;;;;;;3.90;3.50;;;;;;;;;;5031966;28;20194;-73
2024/01/24 01:15:39;;;;;;;4.70;3.60;;;;;;;;;;5032191;28;20211;-73
2024/01/24 01:18:05;;;;;;;5.77;3.87;;;;;;;;;;5031866;28;20175;-72
2024/01/24 01:20:31;;;;;;;4.77;4.00;;;13.10;99.90;;;;;;5044086;28;20202;-73
2024/01/24 01:22:57;;;;;;;5.60;4.13;;;13.10;99.90;;;;;;5052254;28;20534;-75
2024/01/24 01:25:23;;;;;;;4.27;3.87;;;13.10;99.90;;;;;;5053100;28;20175;-73
2024/01/24 01:27:48;;;;;;;5.30;3.77;;;13.10;99.90;;;;;;5051876;28;20552;-74
2024/01/24 01:30:14;;;;;;;4.20;3.80;;;;;;;;;;5041740;28;20184;-74
2024/01/24 01:32:40;;;;;;;4.47;3.53;;;;;;;;;;5031711;28;20577;-71
2024/01/24 01:35:07;;;;;;;3.90;3.50;;;;;;;;;;5031518;28;20230;-73
2024/01/24 01:37:33;;;;;;;5.60;3.67;;;;;;;;;;5031996;28;20171;-74
2024/01/24 01:39:59;;;;;;;5.17;3.63;;;;;;;;;;5030225;28;20788;-75
2024/01/24 01:42:25;;;;;;;6.57;4.37;;;;;;;;;;5031829;28;20270;-73
2024/01/24 01:44:51;;;;;;;4.60;3.47;;;;;;;;;;5039321;28;20251;-72
2024/01/24 01:47:17;;;;;;;6.10;4.33;;;;;;;;;;5051641;28;20254;-73
2024/01/24 01:49:44;;;;;;;5.53;3.70;;;;;;;;;;5051719;28;20171;-73
2024/01/24 01:52:10;;;;;;;4.90;4.30;;;;;;;;;;5051318;28;20179;-73
2024/01/24 01:54:38;;;;;;;3.60;3.30;;;;;;;;;;5043313;28;20298;-74
2024/01/24 01:57:04;;;;;;;6.67;3.07;;;;;;;;;;5040041;28;20207;-73
2024/01/24 01:59:31;;;;;;;4.20;3.30;;;;;;;;;;5051002;28;20261;-73
2024/01/24 02:01:59;;;;;;;3.53;3.30;;;;;;;;;;5051298;28;20198;-72
2024/01/24 02:04:26;;;;;;;3.90;3.50;;;;;;;;;;5048227;28;20312;-72
2024/01/24 02:06:52;;;;;;;3.00;2.80;;;;;;;;;;5031656;28;20214;-72
2024/01/24 02:09:18;;;;;;;5.33;3.00;;;;;;;;;;5030936;28;20179;-72
2024/01/24 02:11:44;;;;;;;4.10;3.70;;;13.50;99.90;;;;;;5032490;28;20601;-70
2024/01/24 02:14:11;;;;;;;4.30;4.07;;;;;;;;;;5031302;28;20237;-71
2024/01/24 02:16:37;;;;;;;4.07;3.23;;;;;;;;;;5031429;28;20203;-73
2024/01/24 02:19:04;;;;;;;3.73;3.40;;;;;;;;;;5036386;28;20179;-73
2024/01/24 02:21:30;;;;;;;3.30;3.00;;;;;;;;;;5054991;28;20180;-72
2024/01/24 02:23:57;;;;;;;4.80;3.43;;;;;;;;;;5055173;28;20186;-73
2024/01/24 02:26:23;;;;;;;3.50;3.20;;;;;;;;;;5054894;28;20187;-73
2024/01/24 02:28:49;;;;;;;4.13;3.00;;;;;;;;;;5054939;28;20183;-72
2024/01/24 02:31:15;;;;;;;3.30;3.07;;;;;;;;;;5054815;28;20528;-73
2024/01/24 02:33:41;;;;;;;3.73;3.47;;;;;;;;;;5048762;28;20214;-73
2024/01/24 02:36:08;;;;;;;3.50;3.30;;;;;;;;;;5034639;28;20211;-73
2024/01/24 02:38:34;;;;;;;6.50;3.17;;;;;;;;;;5034835;28;20167;-73
2024/01/24 02:41:01;;;;;;;4.80;3.20;;;;;;;;;;5041806;28;20179;-72
2024/01/24 02:43:27;;;;;;;3.00;2.70;;;;;;;;;;5034705;28;20198;-73
2024/01/24 02:45:53;;;;;;;3.40;3.00;;;;;;;;;;5035833;28;20692;-74
2024/01/24 02:48:20;;;;;;;3.17;2.97;;;;;;;;;;5035159;28;20195;-72
2024/01/24 02:50:45;;;;;;;3.30;3.00;;;;;;;;;;5034759;28;20179;-72
2024/01/24 02:53:12;;;;;;;3.10;2.80;;;;;;;;;;5034810;28;20726;-72
2024/01/24 02:55:37;;;;;;;3.33;3.07;;;;;;;;;;5034489;28;20207;-74
2024/01/24 02:58:04;;;;;;;3.10;2.90;;;;;;;;;;5034764;28;20227;-71
2024/01/24 03:00:30;;;;;;;3.20;2.77;;;;;;;;;;5034788;28;20221;-73
2024/01/24 03:02:56;;;;;;;6.70;6.20;;;;;;;;;;5034681;28;20547;-74
2024/01/24 03:05:22;;;;;;;2.90;2.70;;;;;;;;;;5034421;28;20198;-73
2024/01/24 03:07:48;;;;;;;2.90;2.70;;;;;;;;;;5034775;28;20175;-73
2024/01/24 03:10:14;;;;;;;3.20;2.87;;;;;;;;;;5034621;28;20252;-72
2024/01/24 03:12:40;;;;;;;2.70;2.50;;;;;;;;;;5034500;28;20674;-73
2024/01/24 03:15:06;;;;;;;3.10;2.90;;;;;;;;;;5034236;28;20195;-73
2024/01/24 03:17:32;;;;;;;3.83;3.47;;;;;;;;;;5034068;28;20209;-73
2024/01/24 03:19:58;;;;;;;2.97;2.73;;;;;;;;;;5034263;28;20659;-72
2024/01/24 03:22:25;;;;;;;3.30;3.03;;;;;;;;;;5034074;28;20203;-72
2024/01/24 03:24:51;;;;;;;2.93;2.73;;;;;;;;;;5034879;28;20204;-73
2024/01/24 03:27:17;;;;;;;3.13;2.97;;;;;;;;;;5034131;28;20175;-73
2024/01/24 03:29:43;;;;;;;3.13;2.70;;;;;;;;;;5033379;28;20171;-72
2024/01/24 03:32:09;;;;;;;2.80;2.60;;;;;;;;;;5033855;28;20230;-73
2024/01/24 03:34:35;;;;;;;3.20;3.00;;;;;;;;;;5046682;28;20229;-71
2024/01/24 03:37:01;;;;;;;2.70;2.60;;;;;;;;;;5053840;28;20210;-72
2024/01/24 03:39:28;;;;;;;3.40;3.10;;;;;;;;;;5053725;28;20552;-72
2024/01/24 03:41:54;;;;;;;2.80;2.60;;;;;;;;;;5053941;28;20163;-72
2024/01/24 03:44:20;;;;;;;3.20;3.00;;;;;;;;;;5053621;28;20248;-72
2024/01/24 03:46:46;;;;;;;2.67;2.47;;;;;;;;;;5053638;28;20194;-72
2024/01/24 03:49:12;;;;;;;2.50;2.40;;;;;;;;;;5041834;28;20634;-72
2024/01/24 03:51:38;;;;;;;3.00;2.80;;;;;;;;;;5033454;28;20203;-73
2024/01/24 03:54:04;;;;;;;2.80;2.60;;;;;;;;;;5033685;28;20268;-72
2024/01/24 03:56:30;;;;;;;3.10;2.80;;;;;;;;;;5033374;28;20218;-72
2024/01/24 03:58:56;;;;;;;2.90;2.70;;;;;;;;;;5042751;28;20521;-72
2024/01/24 04:01:22;;;;;;;3.17;2.97;;;;;;;;;;5053503;28;20206;-71
2024/01/24 04:03:48;;;;;;;3.57;2.90;;;;;;;;;;5053556;28;20233;-71
2024/01/24 04:06:14;;;;;;;4.40;2.50;;;;;;;;;;5054233;28;20182;-72
2024/01/24 04:08:43;;;;;;;2.73;2.63;;;;;;;;;;5055275;28;20654;-71
2024/01/24 04:11:09;;;;;;;2.90;2.70;;;;;;;;;;5053569;28;20179;-72
2024/01/24 04:13:35;;;;;;;3.17;3.07;;;;;;;;;;5044922;28;20207;-71
2024/01/24 04:16:01;;;;;;;3.60;2.90;;;;;;;;;;5033421;28;20199;-72
2024/01/24 04:18:27;;;;;;;2.60;2.50;;;13.80;99.90;;;;;;5033215;28;20603;-72
2024/01/24 04:20:52;;;;;;;2.70;2.60;;;13.90;99.90;;;;;;5033302;28;20206;-71
2024/01/24 04:23:18;;;;;;;2.90;2.70;;;13.90;99.90;;;;;;5039100;28;20289;-71
2024/01/24 04:25:43;;;;;;;2.40;2.30;;;13.80;99.90;;;;;;5051898;28;20183;-74
2024/01/24 04:28:09;;;;;;;2.47;2.30;;;13.80;99.90;;;;;;5053345;28;20183;-73
2024/01/24 04:30:35;;;;;;;2.40;2.30;;;13.80;99.90;;;;;;5040692;28;20289;-73
2024/01/24 04:33:00;;;;;;;2.90;2.63;;;13.70;99.90;;;;;;5033017;28;20233;-74
2024/01/24 04:35:26;;;;;;;2.60;2.50;;;;;;;;;;5031525;28;20195;-73
2024/01/24 04:37:52;;;;;;;2.40;2.30;;;;;;;;;;5033020;28;20171;-74
2024/01/24 04:40:18;;;;;;;2.50;2.40;;;;;;;;;;5032751;28;20168;-74
2024/01/24 04:42:44;;;;;;;2.77;2.67;;;;;;;;;;5031877;28;20174;-72
2024/01/24 04:45:10;;;;;;;3.37;3.17;;;;;;;;;;5033403;28;20278;-73
2024/01/24 04:47:38;;;;;;;2.80;2.70;;;;;;;;;;5034386;28;20174;-73
2024/01/24 04:50:05;;;;;;;2.80;2.60;;;;;;;;;;5052796;28;20178;-73
2024/01/24 04:52:31;;;;;;;2.90;2.70;;;;;;;;;;5052443;28;20514;-72
2024/01/24 04:54:57;;;;;;;2.50;2.40;;;;;;;;;;5051893;28;20623;-74
2024/01/24 04:57:23;;;;;;;2.90;2.80;;;;;;;;;;5052182;28;20245;-72
2024/01/24 04:59:49;;;;;;;2.60;2.40;;;;;;;;;;5052093;28;20206;-70
2024/01/24 05:02:15;;;;;;;2.70;2.60;;;;;;;;;;5051090;28;20178;-71
2024/01/24 05:04:41;;;;;;;3.30;3.13;;;;;;;;;;5032339;28;20207;-70
2024/01/24 05:07:07;;;;;;;3.73;3.30;;;;;;;;;;5032623;28;20187;-74
2024/01/24 05:09:34;;;;;;;8.13;7.73;;;;;;;;;;5031903;28;20175;-69
2024/01/24 05:12:00;;;;;;;2.67;2.57;;;;;;;;;;5032329;28;20179;-71
2024/01/24 05:14:26;;;;;;;4.20;3.03;;;;;;;;;;5050347;28;20202;-71
2024/01/24 05:16:52;;;;;;;4.37;4.17;;;;;;;;;;5051999;28;20568;-70
2024/01/24 05:19:18;;;;;;;2.70;2.60;;;;;;;;;;5051505;28;20211;-72
2024/01/24 05:21:44;;;;;;;4.37;4.17;;;;;;;;;;5052226;28;20189;-70
2024/01/24 05:24:10;;;;;;;3.20;3.10;;;;;;;;;;5051937;28;20194;-71
2024/01/24 05:26:37;;;;;;;3.17;2.97;;;;;;;;;;5052038;28;20249;-70
2024/01/24 05:29:07;;;;;;;3.23;3.07;;;;;;;;;;5033485;28;20207;-72
2024/01/24 05:31:36;;;;;;;2.93;2.83;;;;;;;;;;5035063;28;20175;-69
2024/01/24 05:34:03;;;;;;;3.20;3.00;;;;;;;;;;5044418;28;20248;-69
2024/01/24 05:36:29;;;;;;;2.90;2.80;;;;;;;;;;5051495;28;20213;-72
2024/01/24 05:38:55;;;;;;;2.90;2.80;;;;;;;;;;5035207;28;20558;-74
2024/01/24 05:41:21;;;;;;;3.13;2.90;;;;;;;;;;5031626;28;20168;-71
2024/01/24 05:43:47;;;;;;;3.10;2.90;;;;;;;;;;5031888;28;20369;-72
2024/01/24 05:46:13;;;;;;;4.07;3.87;;;;;;;;;;5031224;28;20217;-72
2024/01/24 05:48:39;;;;;;;4.57;4.07;;;;;;;;;;5031706;28;20270;-73
2024/01/24 05:51:05;;;;;;;5.67;4.63;;;;;;;;;;5031521;28;20211;-73
2024/01/24 05:53:33;;;;;;;25.60;23.73;;;;;;;;;;5044069;28;20237;-72
2024/01/24 05:55:59;;;;;;;7.10;4.33;;;;;;;;;;5051480;28;20198;-72
2024/01/24 05:58:25;;;;;;;7.23;4.30;;;;;;;;;;5051501;28;20178;-72
2024/01/24 06:00:53;;;;;;;7.53;4.27;;;;;;;;;;5051321;28;20301;-73
2024/01/24 06:03:19;;;;;;;7.63;5.70;;;;;;;;;;5038109;28;20683;-72
2024/01/24 06:05:45;;;;;;;26.27;23.57;;;;;;;;;;5031690;28;20215;-72
2024/01/24 06:08:11;;;;;;;9.60;4.23;;;;;;;;;;5031531;28;20542;-71
2024/01/24 06:10:37;;;;;;;14.37;8.07;;;;;;;;;;5031012;28;20182;-73
2024/01/24 06:13:03;;;;;;;6.43;5.30;;;;;;;;;;5032217;28;20175;-73
2024/01/24 06:15:30;;;;;;;10.27;3.70;;;;;;;;;;5031274;28;20202;-70
2024/01/24 06:17:56;;;;;;;8.60;3.77;;;;;;;;;;5043651;28;20266;-71
2024/01/24 06:20:22;;;;;;;11.60;10.70;;;;;;;;;;5050348;28;20186;-71
2024/01/24 06:22:48;;;;;;;11.23;5.17;;;;;;;;;;5051031;28;20178;-71
2024/01/24 06:25:14;;;;;;;7.17;3.77;;;;;;;;;;5049436;28;20202;-71
2024/01/24 06:27:41;;;;;;;5.30;4.80;;;;;;;;;;5051090;28;20195;-71
2024/01/24 06:30:09;;;;;;;10.47;4.13;;;;;;;;;;5050744;28;20174;-71
2024/01/24 06:32:35;;;;;;;9.00;6.10;;;;;;;;;;5051076;28;20232;-71
2024/01/24 06:35:01;;;;;;;9.73;8.23;;;;;;;;;;5051138;28;20660;-71
2024/01/24 06:37:27;;;;;;;16.23;5.53;;;;;;;;;;5051120;28;20218;-70
2024/01/24 06:39:53;;;;;;;9.50;4.73;;;;;;;;;;5043598;28;20549;-71
2024/01/24 06:42:19;;;;;;;11.37;4.93;;;;;;;;;;5031216;28;20259;-71
2024/01/24 06:44:45;;;;;;;12.63;4.53;;;;;;;;;;5031070;28;20215;-71
2024/01/24 06:47:11;;;;;;;8.43;4.80;;;;;;;;;;5031445;28;20545;-71
2024/01/24 06:49:37;;;;;;;13.87;4.53;;;;;;;;;;5032527;28;20172;-71
2024/01/24 06:52:03;;;;;;;7.97;3.97;;;;;;;;;;5034255;28;20693;-73
2024/01/24 06:54:29;;;;;;;13.67;5.80;;;;;;;;;;5032741;28;20663;-73
2024/01/24 06:56:55;;;;;;;16.13;6.37;;;;;;;;;;5034032;28;20586;-73
2024/01/24 06:59:21;;;;;;;14.23;5.53;;;;;;;;;;5031276;28;20643;-71
2024/01/24 07:01:47;;;;;;;15.37;6.00;;;;;;;;;;5030562;28;20183;-72
2024/01/24 07:04:13;;;;;;;10.97;4.93;;;;;;;;;;5031531;28;20556;-72
2024/01/24 07:06:39;;;;;;;12.83;5.20;;;;;;;;;;5033516;28;20262;-72
2024/01/24 07:09:05;;;;;;;16.77;5.07;;;;;;;;;;5034652;28;20176;-72
2024/01/24 07:11:31;;;;;;;12.47;6.17;;;;;;;;;;5035134;28;20184;-74
2024/01/24 07:13:57;;;;;;;12.90;5.37;;;;;;;;;;5032770;28;20261;-73
2024/01/24 07:16:23;;;;;;;18.23;6.10;;;;;;;;;;5035270;28;20207;-70
2024/01/24 07:18:49;;;;;;;15.37;5.13;;;;;;;;;;5034062;28;20171;-73
2024/01/24 07:21:15;;;;;;;18.97;5.20;;;;;;;;;;5033974;28;20206;-73
2024/01/24 07:23:41;;;;;;;13.10;5.17;;;;;;;;;;5033411;28;20210;-72
2024/01/24 07:26:07;;;;;;;18.20;6.00;;;;;;;;;;5034080;28;20263;-72
2024/01/24 07:28:35;;;;;;;19.13;5.33;;;;;;;;;;5033523;28;20259;-73
2024/01/24 07:31:01;;;;;;;16.57;5.50;;;;;;;;;;5035957;28;20541;-73
2024/01/24 07:33:27;;;;;;;21.57;6.00;;;;;;;;;;5045226;28;20294;-73
2024/01/24 07:35:53;;;;;;;18.17;5.67;;;;;;;;;;5032514;28;20317;-74
2024/01/24 07:38:18;;;;;;;13.57;5.87;;;;;;;;;;5033913;28;20242;-73
2024/01/24 07:40:44;;;;;;;21.90;6.00;;;;;;;;;;5034466;28;20188;-73
2024/01/24 07:43:10;;;;;;;19.20;6.53;;;;;;;;;;5036929;28;20190;-73
2024/01/24 07:45:36;;;;;;;24.63;6.77;;;;;;;;;;5053368;28;20198;-72
2024/01/24 07:48:03;;;;;;;17.80;5.17;;;;;;;;;;5053605;28;20171;-73
2024/01/24 07:50:28;;;;;;;17.60;5.83;;;;;;;;;;5053220;28;20186;-72
2024/01/24 07:52:55;;;;;;;13.33;4.70;;;;;;;;;;5046474;28;20647;-72
2024/01/24 07:55:21;;;;;;;11.60;5.23;;;;;;;;;;5033145;28;20179;-72
2024/01/24 07:57:48;;;;;;;17.57;5.90;;;;;;;;;;5032133;28;20179;-74
2024/01/24 08:00:16;;;;;;;12.70;5.80;;;;;;;;;;5032941;28;20176;-73
2024/01/24 08:02:46;;;;;;;18.67;6.27;;;;;;;;;;5031929;28;20186;-73
2024/01/24 08:05:15;;;;;;;21.00;6.93;;;;;;;;;;5033358;28;20207;-72
2024/01/24 08:07:41;;;;;;;24.30;6.53;;;;;;;;;;5044955;28;20640;-74
2024/01/24 08:10:11;;;;;;;15.13;5.97;;;;;;;;;;5053332;28;20182;-73
2024/01/24 08:12:38;;;;;;;26.53;6.80;;;;;;;;;;5040741;28;20189;-73
2024/01/24 08:15:05;;;;;;;14.83;5.70;;;;;;;;;;5038045;28;20316;-73
2024/01/24 08:17:32;;;;;;;23.10;6.50;;;;;;;;;;5033398;28;20310;-72
2024/01/24 08:19:58;;;;;;;18.10;6.00;;;;;;;;;;5040030;28;20194;-72
2024/01/24 08:22:24;;;;;;;21.67;6.27;;;;;;;;;;5053012;28;20736;-72
2024/01/24 08:24:50;;;;;;;18.10;5.20;;;;;;;;;;5052725;28;20211;-72
2024/01/24 08:27:17;;;;;;;26.27;5.93;;;;;;;;;;5042638;28;20175;-72
2024/01/24 08:29:43;;;;;;;19.23;6.73;;;;;;;;;;5044759;28;20174;-69
2024/01/24 08:32:10;;;;;;;19.60;6.03;;;;;;;;;;5046833;28;20213;-70
2024/01/24 08:34:36;;;;;;;20.63;6.10;;;;;;;;;;5051599;28;20277;-71
2024/01/24 08:37:02;;;;;;;28.60;6.47;;;;;;;;;;5052954;28;20203;-71
2024/01/24 08:39:28;;;;;;;31.23;7.07;;;;;;;;;;5052919;28;20167;-71
2024/01/24 08:41:54;;;;;;;21.30;5.80;;;;;;;;;;5050291;28;20186;-72
2024/01/24 08:44:20;;;;;;;13.50;5.47;;;;;;;;;;5052569;28;20198;-72
2024/01/24 08:46:46;;;;;;;24.37;6.97;;;;;;;;;;5052407;28;20634;-71
2024/01/24 08:49:12;;;;;;;21.17;7.57;;;;;;;;;;5052583;28;20171;-72
2024/01/24 08:51:39;;;;;;;27.00;6.97;;;;;;;;;;5052449;28;20179;-72
2024/01/24 08:54:05;;;;;;;26.73;6.60;;;;;;;;;;5051894;28;20277;-71
2024/01/24 08:56:31;;;;;;;12.90;5.70;;;;;;;;;;5052255;28;20210;-71
2024/01/24 08:58:57;;;;;;;22.40;6.50;;;;;;;;;;5051096;28;20589;-70
2024/01/24 09:01:23;;;;;;;29.00;7.00;;;;;;;;;;5052083;28;20185;-72
2024/01/24 09:03:49;;;;;;;23.93;6.97;;;;;;;;;;5052263;28;20708;-71
2024/01/24 09:06:15;;;;;;;33.87;7.47;;;;;;;;;;5052331;28;20182;-71
2024/01/24 09:08:44;;;;;;;18.50;6.03;;;;;;;;;;5052103;28;20179;-72
2024/01/24 09:11:10;;;;;;;30.30;6.90;;;;;;;;;;5052537;28;20167;-71
2024/01/24 09:13:36;;;;;;;21.40;6.63;;;;;;;;;;5052020;28;20195;-72
2024/01/24 09:16:02;;;;;;;23.23;7.27;;;;;;;;;;5052249;28;20210;-72
2024/01/24 09:18:28;;;;;;;23.13;7.73;;;;;;;;;;5052011;28;20174;-71
2024/01/24 09:20:54;;;;;;;30.27;7.13;;;;;;;;;;5051750;28;20182;-71
2024/01/24 09:23:20;;;;;;;23.37;6.70;;;;;;;;;;5052184;28;20572;-72
2024/01/24 09:25:46;;;;;;;26.70;8.50;;;;;;;;;;5051619;28;20189;-71
2024/01/24 09:28:12;;;;;;;20.23;6.73;;;;;;;;;;5051514;28;20175;-71
2024/01/24 09:30:39;;;;;;;21.60;6.63;;;;;;;;;;5051666;28;20233;-74
2024/01/24 09:33:05;;;;;;;18.53;7.57;;;;;;;;;;5052674;28;20716;-72
2024/01/24 09:35:31;;;;;;;29.23;6.57;;;;;;;;;;5053989;28;20195;-72
2024/01/24 09:37:57;;;;;;;16.37;6.17;;;;;;;;;;5056246;28;20178;-72
2024/01/24 09:40:23;;;;;;;19.90;7.17;;;;;;;;;;5051601;28;20198;-71
2024/01/24 09:42:50;;;;;;;26.57;7.40;;;;;;;;;;5051799;28;20570;-72
2024/01/24 09:45:17;;;;;;;26.37;6.63;;;;;;;;;;5051435;28;20199;-70
2024/01/24 09:47:44;;;;;;;23.37;7.00;;;;;;;;;;5051493;28;20170;-71
2024/01/24 09:50:11;;;;;;;25.30;7.53;;;;;;;;;;5051430;28;20178;-71
2024/01/24 09:52:37;;;;;;;24.47;6.43;;;;;;;;;;5051453;28;20178;-72
2024/01/24 09:55:04;;;;;;;27.27;6.33;;;;;;;;;;5050878;28;20190;-71
2024/01/24 09:57:31;;;;;;;26.00;7.20;;;;;;;;;;5049900;28;20206;-72
2024/01/24 09:59:57;;;;;;;24.10;7.47;;;;;;;;;;5044798;28;20228;-72
2024/01/24 10:02:26;;;;;;;20.47;7.00;;;;;;;;;;5031626;28;20670;-71
2024/01/24 10:04:52;;;;;;;23.83;6.47;;;;;;;;;;5024099;28;20304;-71
2024/01/24 10:07:19;;;;;;;21.23;6.80;;;;;;;;;;5011531;28;20256;-71
2024/01/24 10:09:46;;;;;;;21.23;7.53;;;;;;;;;;5011218;28;20647;-72
2024/01/24 10:12:12;;;;;;;26.07;7.47;;;;;;;;;;5013946;28;20476;-73
2024/01/24 10:14:40;;;;;;;27.07;9.87;;;;;;;;;;5011064;28;20211;-74
2024/01/24 10:17:07;;;;;;;25.67;7.40;;;;;;;;;;5011503;28;20204;-72
2024/01/24 10:19:33;;;;;;;22.33;6.73;;;;;;;;;;5011466;28;20597;-72
2024/01/24 10:21:59;;;;;;;21.97;6.60;;;;;;;;;;5011332;28;20180;-73
2024/01/24 10:24:25;;;;;;;22.70;6.77;;;;;;;;;;5011357;28;20196;-72
2024/01/24 10:26:52;;;;;;;27.53;7.50;;;;;;;;;;5012125;28;20536;-70
2024/01/24 10:29:18;;;;;;;30.10;7.13;;;;;;;;;;5050939;28;20182;-72
2024/01/24 10:31:44;;;;;;;22.23;7.50;;;;;;;;;;5049549;28;20183;-72
2024/01/24 10:34:10;;;;;;;18.63;9.13;;;;;;;;;;5049388;28;20581;-71
2024/01/24 10:36:38;;;;;;;31.30;8.67;;;;;;;;;;5050851;28;20209;-72
2024/01/24 10:39:06;;;;;;;28.20;7.03;;;;;;;;;;5050885;28;20175;-72
2024/01/24 10:41:39;;;;;;;24.33;6.13;;;;;;;;;;5053747;28;20171;-72
2024/01/24 10:44:07;;;;;;;19.30;6.80;;;;;;;;;;5054996;28;20195;-72
2024/01/24 10:46:33;;;;;;;26.33;7.07;;;;;;;;;;5053444;28;20239;-72
2024/01/24 10:48:59;;;;;;;20.47;6.93;;;;;;;;;;5043778;28;20187;-71
2024/01/24 10:51:26;;;;;;;23.43;6.80;;;;;;;;;;5034767;28;20220;-71
2024/01/24 10:53:52;;;;;;;21.63;7.67;;;;;;;;;;5034808;28;20199;-72
2024/01/24 10:56:19;;;;;;;25.17;7.00;;;;;;;;;;5034366;28;20210;-72
2024/01/24 10:58:47;;;;;;;25.67;6.30;;;;;;;;;;5037194;28;20269;-71
2024/01/24 11:01:13;;;;;;;23.50;6.40;;;;;;;;;;5035258;28;20207;-70
2024/01/24 11:03:40;;;;;;;24.30;7.50;;;;;;;;;;5035235;28;20238;-72
2024/01/24 11:06:09;;;;;;;27.27;6.87;;;;;;;;;;5034492;28;20179;-71
2024/01/24 11:08:35;;;;;;;18.03;8.33;;;;;;;;;;5034332;28;20674;-72
2024/01/24 11:11:03;;;;;;;29.23;7.83;;;;;;;;;;5036309;28;20294;-71
2024/01/24 11:13:29;;;;;;;20.67;7.07;;;;;;;;;;5041409;28;20203;-71
2024/01/24 11:15:56;;;;;;;15.67;7.50;;;;;;;;;;5040096;28;20606;-72
2024/01/24 11:18:25;;;;;;;24.53;7.97;;;;;;;;;;5054237;28;20254;-72
2024/01/24 11:20:54;;;;;;;19.80;6.70;;;;;;;;;;5053853;28;20182;-72
2024/01/24 11:23:56;;;;;;;27.73;7.17;;;;;;;;;;5053850;28;20198;-71
2024/01/24 11:26:22;;;;;;;23.83;6.70;;;;;;;;;;4992695;28;20224;-73
2024/01/24 11:28:48;;;;;;;15.00;6.30;;;;;;;;;;5041450;28;20562;-72
2024/01/24 11:31:15;;;;;;;24.03;6.37;;;;;;;;;;5054879;28;20261;-71
2024/01/24 11:34:01;;;;;;;18.17;6.10;;;;;;;;;;5054594;28;20198;-72
2024/01/24 11:36:27;;;;;;;16.83;6.60;;;;;;;;;;5054450;28;20210;-71
2024/01/24 11:38:53;;;;;;;19.17;6.90;;;;;;;;;;5054519;28;20513;-71
2024/01/24 11:41:23;;;;;;;22.23;6.47;;;;;;;;;;5055378;28;20234;-72
2024/01/24 11:43:49;;;;;;;17.87;5.83;;;;;;;;;;5054662;28;20186;-72
2024/01/24 11:46:16;;;;;;;23.77;6.13;;;;;;;;;;5055072;28;20171;-72
2024/01/24 11:48:42;;;;;;;24.10;5.90;;;;;;;;;;5054526;28;20178;-72
2024/01/24 11:51:16;;;;;;;24.73;7.37;;;;;;;;;;5053753;28;20227;-73
2024/01/24 11:53:42;;;;;;;20.60;6.27;;;;;;;;;;5053819;28;20384;-72
2024/01/24 11:56:11;;;;;;;20.00;6.67;;;;;;;;;;5053736;28;20681;-71
2024/01/24 11:58:37;;;;;;;21.83;6.03;;;;;;;;;;5053656;28;20182;-72
2024/01/24 12:01:04;;;;;;;20.90;6.30;;;;;;;;;;5053554;28;20171;-72
2024/01/24 12:03:31;;;;;;;19.73;7.33;;;;;;;;;;5053535;28;20689;-69
2024/01/24 12:05:58;;;;;;;25.97;7.00;;;;;;;;;;5052560;28;20218;-72
2024/01/24 12:08:24;;;;;;;23.60;6.77;;;;;;;;;;5054261;28;20670;-73
2024/01/24 12:10:50;;;;;;;18.00;6.20;;;;;;;;;;5053282;28;20240;-73
2024/01/24 12:13:17;;;;;;;18.07;6.17;;;;;;;;;;5053868;28;20209;-72
2024/01/24 12:15:44;;;;;;;17.47;6.37;;;;;;;;;;5053525;28;20198;-71
2024/01/24 12:18:11;;;;;;;21.00;6.47;;;;;;;;;;5054707;28;20175;-72
2024/01/24 12:20:37;;;;;;;20.83;5.70;;;;;;;;;;5058206;28;20187;-72
2024/01/24 12:23:03;;;;;;;14.53;5.67;;;;;;;;;;5054799;28;20626;-73
2024/01/24 12:25:29;;;;;;;20.53;6.00;;;;;;;;;;5053592;28;20178;-71
2024/01/24 12:27:56;;;;;;;24.67;7.57;;;;;;;;;;5053417;28;20541;-71
2024/01/24 12:30:22;;;;;;;23.30;6.73;;;;;;;;;;5053042;28;20250;-72
2024/01/24 12:32:48;;;;;;;20.23;8.37;;;;;;;;;;5053155;28;20170;-71
2024/01/24 12:35:16;;;;;;;19.23;7.00;;;;;;;;;;5053166;28;20201;-71
2024/01/24 12:37:42;;;;;;;23.43;6.87;;;;;;;;;;5052899;28;20179;-71
2024/01/24 12:40:11;;;;;;;15.40;6.30;;;;;;;;;;5054613;28;20173;-73
2024/01/24 12:42:38;;;;;;;21.63;7.53;;;;;;;;;;5053377;28;20250;-71
2024/01/24 12:45:05;;;;;;;20.97;5.87;;;;;;;;;;5053437;28;20194;-74
2024/01/24 12:47:34;;;;;;;21.27;6.20;;;;;;;;;;5053390;28;20171;-72
2024/01/24 12:50:00;;;;;;;24.13;6.97;;;;;;;;;;5053115;28;20198;-72
2024/01/24 12:52:28;;;;;;;16.50;7.07;;;;;;;;;;5053281;28;20179;-72
2024/01/24 12:54:54;;;;;;;19.37;5.57;;;;;;;;;;5052997;28;20281;-72
2024/01/24 12:57:20;;;;;;;23.40;7.63;;;;;;;;;;5053039;28;20631;-72
2024/01/24 12:59:46;;;;;;;17.20;8.87;;;;;;;;;;5052167;28;20166;-72
2024/01/24 13:02:13;;;;;;;19.10;6.97;;;;;;;;;;5052563;28;20203;-72
2024/01/24 13:07:08;;;;;;;16.20;6.23;;;;;;;;;;5050372;28;20218;-69
2024/01/24 13:09:34;;;;;;;25.70;8.20;;;;;;;;;;5051796;28;20183;-69
2024/01/24 13:12:00;;;;;;;23.47;7.50;;;;;;;;;;5051924;28;20225;-70
2024/01/24 13:14:26;;;;;;;23.03;7.30;;;;;;;;;;5051658;28;20206;-70
2024/01/24 13:16:52;;;;;;;24.30;7.07;;;;;;;;;;5051451;28;20316;-69
2024/01/24 13:19:18;;;;;;;13.50;12.20;;;;;;;;;;5051635;28;20206;-68
2024/01/24 13:21:44;;;;;;;17.23;6.50;;;;;;;;;;5051394;28;20187;-69
2024/01/24 13:24:10;;;;;;;20.70;6.43;;;;;;;;;;5051503;28;20607;-69
2024/01/24 13:26:36;;;;;;;19.20;6.70;;;;;;;;;;5051517;28;20179;-70
2024/01/24 13:29:02;;;;;;;13.47;6.07;;;;;;;;;;5051048;28;20174;-70
2024/01/24 13:31:28;;;;;;;18.30;5.93;;;;;;;;;;5051288;28;20197;-69
2024/01/24 13:33:55;;;;;;;22.03;6.93;;;;;;;;;;5051352;28;20780;-69
2024/01/24 13:36:21;;;;;;;27.10;7.57;;;;;;;;;;5051300;28;20213;-70
2024/01/24 13:38:47;;;;;;;20.67;6.57;;;;;;;;;;5051271;28;20174;-70
2024/01/24 13:41:14;;;;;;;17.10;9.23;;;;;;;;;;5051264;28;20175;-69
2024/01/24 13:43:40;;;;;;;22.77;6.63;;;;;;;;;;5051021;28;20191;-70
2024/01/24 13:46:06;;;;;;;27.87;7.77;;;;;;;;;;5051214;28;20179;-70
2024/01/24 13:48:32;;;;;;;19.50;6.93;;;;;;;;;;5051093;28;20175;-70
2024/01/24 13:50:58;;;;;;;20.13;6.70;;;;;;;;;;5051147;28;20316;-71
2024/01/24 13:53:24;;;;;;;25.60;7.97;;;;;;;;;;5051082;28;20179;-68
2024/01/24 13:55:50;;;;;;;20.30;6.10;;;;;;;;;;5051029;28;20209;-69
2024/01/24 13:58:17;;;;;;;16.00;6.23;;;;;;;;;;5051046;28;20254;-68
2024/01/24 14:00:43;;;;;;;24.00;7.63;;;;;;;;;;5050751;28;20189;-70
2024/01/24 14:03:09;;;;;;;20.73;6.40;;;;;;;;;;5051047;28;20202;-69
2024/01/24 14:05:35;;;;;;;20.33;7.00;;;;;;;;;;5050710;28;20246;-70
2024/01/24 14:08:02;;;;;;;21.67;6.33;;;;;;;;;;5051012;28;20209;-69
2024/01/24 14:10:28;;;;;;;20.13;6.90;;;;;;;;;;5050974;28;20166;-70
2024/01/24 14:12:54;;;;;;;16.37;6.20;;;;;;;;;;5051101;28;20232;-69
2024/01/24 14:15:20;;;;;;;19.20;7.13;;;;;;;;;;5053912;28;20259;-70
2024/01/24 14:17:46;;;;;;;22.10;7.13;;;;;;;;;;5054975;28;20626;-70
2024/01/24 14:20:12;;;;;;;24.50;7.40;;;;;;;;;;5054875;28;20225;-70
2024/01/24 14:22:38;;;;;;;17.23;5.90;;;;;;;;;;5054833;28;20219;-70
2024/01/24 14:25:04;;;;;;;20.30;6.37;;;;;;;;;;5054931;28;20716;-70
2024/01/24 14:27:30;;;;;;;26.63;7.53;;;;;;;;;;5054803;28;20553;-71